Time;durP1;ratioP1;P1;durP2;ratioP2;P2;SDS_P1;SDS_P2;PMS_P1;PMS_P2;Temp;Humidity;BMP_temperature;BMP_pressure;BME280_temperature;BME280_humidity;BME280_pressure;Samples;Min_cycle;Max_cycle;Signal;HPM_P1;HPM_P2
2021/12/03 00:02:00;;;;;;;4.80;2.00;;;;;;;;;;5042921;28;20426;-74
2021/12/03 00:04:26;;;;;;;2.38;2.05;;;;;;;;;;5025820;28;20033;-73
2021/12/03 00:06:52;;;;;;;3.78;2.08;;;;;;;;;;5041029;28;20040;-74
2021/12/03 00:09:18;;;;;;;3.13;1.95;;;;;;;;;;5026811;28;20045;-74
2021/12/03 00:11:44;;;;;;;5.30;2.20;;;;;;;;;;5045511;28;20033;-74
2021/12/03 00:14:10;;;;;;;4.38;1.95;;;;;;;;;;5044854;28;20371;-74
2021/12/03 00:16:36;;;;;;;3.22;1.75;;;;;;;;;;5046738;28;20036;-74
2021/12/03 00:19:02;;;;;;;10.15;1.95;;;;;;;;;;5028520;28;20175;-75
2021/12/03 00:21:28;;;;;;;4.97;1.88;;;;;;;;;;5045330;28;20496;-74
2021/12/03 00:23:54;;;;;;;2.92;2.03;;;;;;;;;;5046448;28;20054;-75
2021/12/03 00:26:20;;;;;;;4.15;1.73;;;;;;;;;;5028290;28;20098;-74
2021/12/03 00:28:46;;;;;;;4.50;2.10;;;;;;;;;;5045021;28;20036;-75
2021/12/03 00:31:13;;;;;;;3.55;2.10;;;;;;;;;;5029683;28;20045;-75
2021/12/03 00:33:39;;;;;;;3.75;2.00;;;;;;;;;;5027816;28;20033;-74
2021/12/03 00:36:06;;;;;;;11.85;2.35;;;;;;;;;;5045381;28;20044;-73
2021/12/03 00:38:37;;;;;;;4.65;2.03;;;;;;;;;;5029533;28;20045;-74
2021/12/03 00:41:08;;;;;;;2.97;1.55;;;;;;;;;;5044842;28;20254;-74
2021/12/03 00:43:37;;;;;;;7.45;2.53;;;;;;;;;;5027207;28;20075;-74
2021/12/03 00:46:07;;;;;;;5.22;2.60;;;;;;;;;;5045581;28;20052;-74
2021/12/03 00:48:33;;;;;;;4.95;2.03;;;;;;;;;;5045927;28;20094;-74
2021/12/03 00:51:00;;;;;;;4.65;2.30;;;;;;;;;;5027638;28;20132;-74
2021/12/03 00:53:25;;;;;;;6.05;2.90;;;;;;;;;;5044874;28;20045;-74
2021/12/03 00:55:52;;;;;;;4.07;2.15;;;;;;;;;;5029521;28;20039;-73
2021/12/03 00:58:17;;;;;;;5.05;2.80;;;;;;;;;;5026571;28;20435;-74
2021/12/03 01:00:43;;;;;;;3.72;2.40;;;;;;;;;;5044432;28;20152;-74
2021/12/03 01:03:09;;;;;;;3.42;2.40;;;;;;;;;;5044044;28;20043;-74
2021/12/03 01:05:35;;;;;;;5.32;2.83;;;;;;;;;;5045703;28;20099;-74
2021/12/03 01:08:01;;;;;;;3.10;2.25;;;;;;;;;;5044374;28;20041;-75
2021/12/03 01:10:29;;;;;;;5.60;2.58;;;;;;;;;;5027429;28;20555;-75
2021/12/03 01:12:56;;;;;;;4.22;2.10;;;;;;;;;;5028786;28;20040;-74
2021/12/03 01:15:24;;;;;;;3.03;2.40;;;;;;;;;;5027472;28;20045;-74
2021/12/03 01:17:51;;;;;;;6.10;2.42;;;;;;;;;;5043648;28;20499;-73
2021/12/03 01:20:17;;;;;;;7.07;3.15;;;;;;;;;;5041546;28;20140;-76
2021/12/03 01:22:45;;;;;;;11.40;3.45;;;;;;;;;;5023410;28;20041;-74
2021/12/03 01:25:11;;;;;;;10.45;3.95;;;;;;;;;;5040290;28;20095;-74
2021/12/03 01:27:38;;;;;;;6.50;2.58;;;;;;;;;;5025421;28;20040;-75
2021/12/03 01:30:05;;;;;;;7.63;3.17;;;;;;;;;;5041030;28;20045;-75
2021/12/03 01:32:31;;;;;;;8.85;3.67;;;;;;;;;;5039897;28;20040;-76
2021/12/03 01:34:57;;;;;;;5.00;3.30;;;;;;;;;;5041674;28;20045;-76
2021/12/03 01:37:23;;;;;;;9.90;3.15;;;;;;;;;;5040498;28;20543;-75
2021/12/03 01:39:49;;;;;;;10.27;4.20;;;;;;;;;;5040120;28;20029;-75
2021/12/03 01:42:15;;;;;;;10.10;4.22;;;;;;;;;;5041546;28;20500;-76
2021/12/03 01:44:41;;;;;;;7.22;4.63;;;;;;;;;;5023697;28;20052;-75
2021/12/03 01:47:07;;;;;;;11.65;5.55;;;;;;;;;;5040258;28;20040;-76
2021/12/03 01:49:33;;;;;;;10.43;4.63;;;;;;;;;;5025071;28;20041;-74
2021/12/03 01:51:59;;;;;;;10.55;4.38;;;;;;;;;;5039443;28;20032;-76
2021/12/03 01:54:25;;;;;;;7.38;4.03;;;;;;;;;;5040052;28;20036;-75
2021/12/03 01:56:51;;;;;;;10.38;4.15;;;;;;;;;;5041453;28;20041;-75
2021/12/03 01:59:17;;;;;;;9.70;4.63;;;;;;;;;;5039266;28;20367;-75
2021/12/03 02:01:43;;;;;;;10.27;4.22;;;;;;;;;;5040342;28;20025;-75
2021/12/03 02:04:09;;;;;;;14.20;5.20;;;;;;;;;;5040827;28;20043;-76
2021/12/03 02:06:37;;;;;;;11.50;4.10;;;;;;;;;;5039257;28;20037;-74
2021/12/03 02:09:04;;;;;;;7.70;4.03;;;;;;;;;;5040620;28;20033;-72
2021/12/03 02:11:30;;;;;;;10.05;4.25;;;;;;;;;;5041139;28;20037;-75
2021/12/03 02:13:57;;;;;;;10.75;4.70;;;;;;;;;;5038817;28;20124;-75
2021/12/03 02:16:23;;;;;;;10.00;4.72;;;;;;;;;;5040574;28;20063;-75
2021/12/03 02:18:49;;;;;;;9.85;4.07;;;;;;;;;;5023956;28;20371;-75
2021/12/03 02:21:17;;;;;;;8.05;4.00;;;;;;;;;;5041347;28;20049;-76
2021/12/03 02:23:43;;;;;;;13.05;5.57;;;;;;;;;;5022988;28;20080;-76
2021/12/03 02:26:10;;;;;;;12.88;4.60;;;;;;;;;;5039397;28;20041;-76
2021/12/03 02:28:37;;;;;;;10.27;4.93;;;;;;;;;;5041022;28;20047;-75
2021/12/03 02:31:04;;;;;;;7.93;5.05;;;;;;;;;;5039519;28;20048;-75
2021/12/03 02:33:31;;;;;;;12.93;5.60;;;;;;;;;;5038847;28;20045;-75
2021/12/03 02:35:57;;;;;;;10.13;5.72;;;;;;;;;;5040610;28;20112;-74
2021/12/03 02:38:23;;;;;;;13.70;5.75;;;;;;;;;;5023013;28;20457;-74
2021/12/03 02:40:51;;;;;;;11.00;5.47;;;;;;;;;;5038980;28;20044;-74
2021/12/03 02:43:17;;;;;;;14.75;6.07;;;;;;;;;;5038217;28;20049;-74
2021/12/03 02:45:43;;;;;;;17.92;7.03;;;;;;;;;;5040164;28;20048;-75
2021/12/03 02:48:09;;;;;;;13.43;5.97;;;;;;;;;;5040284;28;20041;-75
2021/12/03 02:50:36;;;;;;;15.35;7.18;;;;;;;;;;5038086;28;20084;-75
2021/12/03 02:53:02;;;;;;;14.85;7.13;;;;;;;;;;5039775;28;20129;-74
2021/12/03 02:55:28;;;;;;;19.13;7.78;;;;;;;;;;5023335;28;20088;-72
2021/12/03 02:57:54;;;;;;;19.63;8.85;;;;;;;;;;5038167;28;20117;-75
2021/12/03 03:00:22;;;;;;;17.20;8.85;;;;;;;;;;5040166;28;20556;-75
2021/12/03 03:02:48;;;;;;;17.20;9.13;;;;;;;;;;5039509;28;20047;-75
2021/12/03 03:05:15;;;;;;;17.17;9.80;;;;;;;;;;5037952;28;20077;-75
2021/12/03 03:07:42;;;;;;;16.90;10.07;;;;;;;;;;5039619;28;20076;-76
2021/12/03 03:10:10;;;;;;;21.33;10.48;;;;;;;;;;5039729;28;20564;-75
2021/12/03 03:12:36;;;;;;;15.57;10.15;;;;;;;;;;5038027;28;20079;-75
2021/12/03 03:15:02;;;;;;;19.25;12.13;;;;;;;;;;5039425;28;20033;-74
2021/12/03 03:17:29;;;;;;;19.30;10.75;;;;;;;;;;5022875;28;20503;-74
2021/12/03 03:19:56;;;;;;;24.65;11.90;;;;;;;;;;5021151;28;20080;-75
2021/12/03 03:22:22;;;;;;;21.10;11.52;;;;;;;;;;5039607;28;20049;-75
2021/12/03 03:24:50;;;;;;;20.92;12.68;;;;;;;;;;5039422;28;20033;-75
2021/12/03 03:27:16;;;;;;;23.83;12.88;;;;;;;;;;5037451;28;20056;-75
2021/12/03 03:29:44;;;;;;;17.20;11.52;;;;;;;;;;5027606;28;20128;-76
2021/12/03 03:32:11;;;;;;;18.25;12.18;;;;;;;;;;5032773;28;20510;-76
2021/12/03 03:34:37;;;;;;;26.92;13.88;;;;;;;;;;5049373;28;20048;-75
2021/12/03 03:37:03;;;;;;;20.83;12.68;;;;;;;;;;5032627;28;20041;-76
2021/12/03 03:39:29;;;;;;;21.08;13.55;;;;;;;;;;5049375;28;20044;-75
2021/12/03 03:41:55;;;;;;;21.38;12.63;;;;;;;;;;5032395;28;20041;-75
2021/12/03 03:44:21;;;;;;;24.67;13.18;;;;;;;;;;5033355;28;20434;-75
2021/12/03 03:46:50;;;;;;;21.48;12.77;;;;;;;;;;5036304;28;20099;-76
2021/12/03 03:49:16;;;;;;;19.30;13.48;;;;;;;;;;5053117;28;20603;-75
2021/12/03 03:51:42;;;;;;;22.90;13.27;;;;;;;;;;5036576;28;20123;-75
2021/12/03 03:54:08;;;;;;;20.02;12.27;;;;;;;;;;5036390;28;20070;-74
2021/12/03 03:56:34;;;;;;;18.25;11.88;;;;;;;;;;5052994;28;20463;-76
2021/12/03 03:59:00;;;;;;;20.05;13.10;;;;;;;;;;5036289;28;20036;-75
2021/12/03 04:01:27;;;;;;;21.85;12.45;;;;;;;;;;5036476;28;20056;-75
2021/12/03 04:03:53;;;;;;;21.85;13.73;;;;;;;;;;5053029;28;20174;-75
2021/12/03 04:06:20;;;;;;;19.35;12.05;;;;;;;;;;5036328;28;20056;-75
2021/12/03 04:08:47;;;;;;;22.10;12.77;;;;;;;;;;5036218;28;20040;-75
2021/12/03 04:11:14;;;;;;;21.88;12.30;;;;;;;;;;5036543;28;20045;-75
2021/12/03 04:13:40;;;;;;;22.38;11.85;;;;;;;;;;5052710;28;20037;-75
2021/12/03 04:16:06;;;;;;;18.73;11.45;;;;;;;;;;5052590;28;20059;-75
2021/12/03 04:18:32;;;;;;;22.58;12.63;;;;;;;;;;5036016;28;20497;-74
2021/12/03 04:20:58;;;;;;;19.20;11.65;;;;;;;;;;5035938;28;20051;-75
2021/12/03 04:23:24;;;;;;;21.35;12.43;;;;;;;;;;5036146;28;20051;-75
2021/12/03 04:25:50;;;;;;;19.02;12.15;;;;;;;;;;5035832;28;20073;-75
2021/12/03 04:28:17;;;;;;;19.52;11.27;;;;;;;;;;5035714;28;20072;-75
2021/12/03 04:30:44;;;;;;;20.02;11.88;;;;;;;;;;5052721;28;20070;-76
2021/12/03 04:33:10;;;;;;;25.42;12.63;;;;;;;;;;5052242;28;20047;-75
2021/12/03 04:35:36;;;;;;;17.77;11.75;;;;;;;;;;5035716;28;20037;-76
2021/12/03 04:38:03;;;;;;;20.45;12.05;;;;;;;;;;5035939;28;20477;-74
2021/12/03 04:40:29;;;;;;;23.45;11.98;;;;;;;;;;5035544;28;20334;-72
2021/12/03 04:42:55;;;;;;;21.85;11.80;;;;;;;;;;5052089;28;20040;-76
2021/12/03 04:45:23;;;;;;;19.23;12.60;;;;;;;;;;5035410;28;20041;-75
2021/12/03 04:47:50;;;;;;;24.85;13.43;;;;;;;;;;5035271;28;20045;-76
2021/12/03 04:50:17;;;;;;;22.80;12.90;;;;;;;;;;5052322;28;20118;-75
2021/12/03 04:52:43;;;;;;;20.63;12.20;;;;;;;;;;5051913;28;20041;-75
2021/12/03 04:55:10;;;;;;;21.35;12.52;;;;;;;;;;5035420;28;20433;-75
2021/12/03 04:57:36;;;;;;;21.90;13.75;;;;;;;;;;5052167;28;20044;-75
2021/12/03 05:00:05;;;;;;;21.23;12.82;;;;;;;;;;5035272;28;20047;-76
2021/12/03 05:02:31;;;;;;;21.23;12.30;;;;;;;;;;5035191;28;20356;-75
2021/12/03 05:05:01;;;;;;;24.63;13.15;;;;;;;;;;5051772;28;20045;-76
2021/12/03 05:07:31;;;;;;;23.05;11.93;;;;;;;;;;5052067;28;20056;-76
2021/12/03 05:09:57;;;;;;;23.15;12.00;;;;;;;;;;5035044;28;20132;-75
2021/12/03 05:12:23;;;;;;;20.20;12.13;;;;;;;;;;5034889;28;20041;-75
2021/12/03 05:14:49;;;;;;;19.92;12.45;;;;;;;;;;5051539;28;20405;-74
2021/12/03 05:17:15;;;;;;;19.73;13.30;;;;;;;;;;5034792;28;20045;-75
2021/12/03 05:19:41;;;;;;;18.95;11.73;;;;;;;;;;5034920;28;20540;-75
2021/12/03 05:22:07;;;;;;;18.65;11.52;;;;;;;;;;5051671;28;20124;-76
2021/12/03 05:24:33;;;;;;;32.88;13.77;;;;;;;;;;5034878;28;20124;-76
2021/12/03 05:26:59;;;;;;;15.23;8.90;;;;;;;;;;5034680;28;20036;-75
2021/12/03 05:29:25;;;;;;;21.98;10.13;;;;;;;;;;5051192;28;20408;-76
2021/12/03 05:31:51;;;;;;;23.42;11.43;;;;;;;;;;5034814;28;20432;-75
2021/12/03 05:34:17;;;;;;;17.55;11.07;;;;;;;;;;5050950;28;20045;-75
2021/12/03 05:36:46;;;;;;;19.73;10.85;;;;;;;;;;5051233;28;20476;-74
2021/12/03 05:39:12;;;;;;;12.05;8.57;;;;;;;;;;5051196;28;20072;-76
2021/12/03 05:41:38;;;;;;;16.80;9.98;;;;;;;;;;5051165;28;20072;-75
2021/12/03 05:44:04;;;;;;;21.08;11.20;;;;;;;;;;5050978;28;20084;-76
2021/12/03 05:46:30;;;;;;;14.73;8.02;;;;;;;;;;5034346;28;20443;-75
2021/12/03 05:48:56;;;;;;;17.23;9.30;;;;;;;;;;5051063;28;20045;-76
2021/12/03 05:51:25;;;;;;;19.02;11.57;;;;;;;;;;5050966;28;20045;-74
2021/12/03 05:53:51;;;;;;;17.00;10.43;;;;;;;;;;5050862;28;20520;-75
2021/12/03 05:56:17;;;;;;;29.48;11.52;;;;;;;;;;5034237;28;20037;-74
2021/12/03 05:58:43;;;;;;;18.10;10.55;;;;;;;;;;5051321;28;20477;-77
2021/12/03 06:01:09;;;;;;;19.60;11.55;;;;;;;;;;5050578;28;20037;-75
2021/12/03 06:03:35;;;;;;;22.55;11.65;;;;;;;;;;5034416;28;20100;-74
2021/12/03 06:06:01;;;;;;;25.80;11.27;;;;;;;;;;5034041;28;20132;-74
2021/12/03 06:08:26;;;;;;;16.55;10.20;;;;;;;;;;5033576;28;20409;-74
2021/12/03 06:10:52;;;;;;;20.88;10.63;;;;;;;;;;5050611;28;20396;-74
2021/12/03 06:13:18;;;;;;;19.42;11.18;;;;;;;;;;5033864;28;20036;-73
2021/12/03 06:15:44;;;;;;;17.25;9.95;;;;;;;;;;5050582;28;20037;-73
2021/12/03 06:18:10;;;;;;;18.50;11.15;;;;;;;;;;5052760;28;20037;-75
2021/12/03 06:20:36;;;;;;;18.75;11.65;;;;;;;;;;5037098;28;20074;-74
2021/12/03 06:23:03;;;;;;;17.95;11.20;;;;;;;;;;5053657;28;20048;-72
2021/12/03 06:25:29;;;;;;;18.27;10.27;;;;;;;;;;5037200;28;20469;-73
2021/12/03 06:27:57;;;;;;;19.30;11.50;;;;;;;;;;5053597;28;20043;-74
2021/12/03 06:30:24;;;;;;;17.15;10.40;;;;;;;;;;5037297;28;20047;-73
2021/12/03 06:32:51;;;;;;;17.70;10.35;;;;;;;;;;5036760;28;20515;-73
2021/12/03 06:35:17;;;;;;;25.35;10.35;;;;;;;;;;5036875;28;20036;-75
2021/12/03 06:37:43;;;;;;;18.30;9.55;;;;;;;;;;5053243;28;20123;-75
2021/12/03 06:40:11;;;;;;;19.60;9.57;;;;;;;;;;5036537;28;20048;-75
2021/12/03 06:42:37;;;;;;;14.52;8.52;;;;;;;;;;5036444;28;20066;-73
2021/12/03 06:45:06;;;;;;;20.95;10.20;;;;;;;;;;5053405;28;20050;-74
2021/12/03 06:47:32;;;;;;;17.20;9.18;;;;;;;;;;5053076;28;20044;-72
2021/12/03 06:49:58;;;;;;;13.77;8.10;;;;;;;;;;5053204;28;20080;-73
2021/12/03 06:52:25;;;;;;;17.35;9.57;;;;;;;;;;5053488;28;20040;-73
2021/12/03 06:54:56;;;;;;;16.73;8.73;;;;;;;;;;5037136;28;20472;-73
2021/12/03 06:57:22;;;;;;;18.25;9.95;;;;;;;;;;5037373;28;20135;-72
2021/12/03 06:59:48;;;;;;;16.23;9.20;;;;;;;;;;5053091;28;20037;-73
2021/12/03 07:02:14;;;;;;;18.52;10.13;;;;;;;;;;5036212;28;20048;-73
2021/12/03 07:04:42;;;;;;;16.77;9.50;;;;;;;;;;5052700;28;20040;-73
2021/12/03 07:07:08;;;;;;;17.75;8.40;;;;;;;;;;5052982;28;20582;-73
2021/12/03 07:09:34;;;;;;;16.73;8.57;;;;;;;;;;5052777;28;20035;-72
2021/12/03 07:12:00;;;;;;;17.67;8.05;;;;;;;;;;5036159;28;20480;-74
2021/12/03 07:14:26;;;;;;;19.50;9.38;;;;;;;;;;5036239;28;20200;-73
2021/12/03 07:16:53;;;;;;;16.50;8.15;;;;;;;;;;5035907;28;20059;-72
2021/12/03 07:19:18;;;;;;;15.77;9.70;;;;;;;;;;5051530;28;20048;-73
2021/12/03 07:21:44;;;;;;;14.27;8.45;;;;;;;;;;5052578;28;20127;-72
2021/12/03 07:24:10;;;;;;;15.85;8.65;;;;;;;;;;5052869;28;20389;-73
2021/12/03 07:26:36;;;;;;;14.88;7.90;;;;;;;;;;5052392;28;20041;-73
2021/12/03 07:29:03;;;;;;;13.40;8.00;;;;;;;;;;5053266;28;20735;-73
2021/12/03 07:31:29;;;;;;;19.75;9.02;;;;;;;;;;5047707;28;20037;-73
2021/12/03 07:33:55;;;;;;;17.15;8.80;;;;;;;;;;5033517;28;20045;-73
2021/12/03 07:36:21;;;;;;;17.42;9.10;;;;;;;;;;5033522;28;20036;-73
2021/12/03 07:38:48;;;;;;;15.05;8.70;;;;;;;;;;5016915;28;20045;-73
2021/12/03 07:41:14;;;;;;;13.95;8.15;;;;;;;;;;5017397;28;20040;-74
2021/12/03 07:43:40;;;;;;;16.48;8.38;;;;;;;;;;5033264;28;20045;-74
2021/12/03 07:46:06;;;;;;;16.67;8.38;;;;;;;;;;5033468;28;20090;-74
2021/12/03 07:48:32;;;;;;;18.13;8.40;;;;;;;;;;5017200;28;20041;-73
2021/12/03 07:50:58;;;;;;;20.52;9.13;;;;;;;;;;5033310;28;20041;-72
2021/12/03 07:53:24;;;;;;;14.02;7.68;;;;;;;;;;5033318;28;20400;-73
2021/12/03 07:55:51;;;;;;;16.08;9.00;;;;;;;;;;5033508;28;20485;-74
2021/12/03 07:58:18;;;;;;;14.77;7.32;;;;;;;;;;5016920;28;20527;-73
2021/12/03 08:00:45;;;;;;;15.75;7.95;;;;;;;;;;5033555;28;20072;-72
2021/12/03 08:03:11;;;;;;;15.15;7.32;;;;;;;;;;5033428;28;20477;-75
2021/12/03 08:05:37;;;;;;;19.65;7.80;;;;;;;;;;5033250;28;20051;-73
2021/12/03 08:08:03;;;;;;;15.18;8.35;;;;;;;;;;5033634;28;20116;-73
2021/12/03 08:10:29;;;;;;;16.52;7.63;;;;;;;;;;5016721;28;20481;-73
2021/12/03 08:12:55;;;;;;;13.43;7.68;;;;;;;;;;5033193;28;20044;-72
2021/12/03 08:15:22;;;;;;;19.83;8.00;;;;;;;;;;5033066;28;20041;-74
2021/12/03 08:17:49;;;;;;;17.40;8.13;;;;;;;;;;5016747;28;20041;-73
2021/12/03 08:20:16;;;;;;;15.32;7.38;;;;;;;;;;5032953;28;20057;-73
2021/12/03 08:22:42;;;;;;;16.38;7.53;;;;;;;;;;5032858;28;20128;-75
2021/12/03 08:25:09;;;;;;;16.08;8.60;;;;;;;;;;5016837;28;20417;-73
2021/12/03 08:27:35;;;;;;;21.02;11.55;;;;;;;;;;5033367;28;20465;-74
2021/12/03 08:30:01;;;;;;;16.60;7.60;;;;;;;;;;5033074;28;20055;-73
2021/12/03 08:32:27;;;;;;;16.60;8.15;;;;;;;;;;5020147;28;20094;-75
2021/12/03 08:34:53;;;;;;;15.65;8.68;;;;;;;;;;5036872;28;20037;-73
2021/12/03 08:37:19;;;;;;;21.52;10.80;;;;;;;;;;5020123;28;20123;-74
2021/12/03 08:39:45;;;;;;;20.90;9.52;;;;;;;;;;5020383;28;20059;-75
2021/12/03 08:42:12;;;;;;;23.33;10.75;;;;;;;;;;5020205;28;20037;-73
2021/12/03 08:44:38;;;;;;;18.23;8.35;;;;;;;;;;5036882;28;20083;-74
2021/12/03 08:47:06;;;;;;;24.27;9.52;;;;;;;;;;5044091;28;20048;-74
2021/12/03 08:49:38;;;;;;;26.05;11.60;;;;;;;;;;5028133;28;20043;-74
2021/12/03 08:57:18;;;;;;;27.38;11.68;;;;;;;;;;5045837;28;20100;-73
2021/12/03 08:59:44;;;;;;;25.67;12.15;;;;;;;;;;5029850;28;20079;-72
2021/12/03 09:02:10;;;;;;;28.70;13.68;;;;;;;;;;5027245;28;20047;-74
2021/12/03 09:04:37;;;;;;;29.50;12.80;;;;;;;;;;5027129;28;20041;-74
2021/12/03 09:07:04;;;;;;;29.30;13.52;;;;;;;;;;5045582;28;20058;-73
2021/12/03 09:09:31;;;;;;;32.08;14.10;;;;;;;;;;5045236;28;20395;-74
2021/12/03 09:11:57;;;;;;;27.50;12.85;;;;;;;;;;5045499;28;20124;-73
2021/12/03 09:14:29;;;;;;;28.13;13.65;;;;;;;;;;5027106;28;20064;-75
2021/12/03 09:17:01;;;;;;;26.38;13.18;;;;;;;;;;5027153;28;20059;-74
2021/12/03 09:19:44;;;;;;;30.40;13.65;;;;;;;;;;5040695;28;20064;-73
2021/12/03 09:22:15;;;;;;;38.30;14.55;;;;;;;;;;5041272;28;20037;-73
2021/12/03 09:24:41;;;;;;;;;;;;;;;;;;5026783;28;20559;-73
2021/12/03 09:27:07;;;;;;;39.10;17.30;;;;;;;;;;5041190;28;20011;-74
2021/12/03 09:29:35;;;;;;;32.72;14.18;;;;;;;;;;5041836;28;20033;-74
2021/12/03 09:32:01;;;;;;;35.25;15.52;;;;;;;;;;5041902;28;20082;-73
2021/12/03 09:34:30;;;;;;;33.15;15.93;;;;;;;;;;5040593;28;20058;-73
2021/12/03 09:36:56;;;;;;;33.13;14.40;;;;;;;;;;5023280;28;20037;-74
2021/12/03 09:39:24;;;;;;;32.90;15.27;;;;;;;;;;5040060;28;20037;-73
2021/12/03 09:41:54;;;;;;;36.92;15.88;;;;;;;;;;5040010;28;20044;-73
2021/12/03 09:44:22;;;;;;;39.08;16.42;;;;;;;;;;5025093;28;20041;-74
2021/12/03 09:46:48;;;;;;;40.17;18.33;;;;;;;;;;5024376;28;20120;-73
2021/12/03 09:52:11;;;;;;;38.42;16.20;;;;;;;;;;5040269;28;20041;-74
2021/12/03 09:54:44;;;;;;;37.92;16.35;;;;;;;;;;5041549;28;20041;-73
2021/12/03 09:57:14;;;;;;;42.40;17.38;;;;;;;;;;5040685;28;20397;-74
2021/12/03 10:18:07;;;;;;;33.75;14.27;;;;;;;;;;5051570;28;20041;-73
2021/12/03 10:20:47;;;;;;;25.40;12.40;;;;;;;;;;5049814;28;20057;-74
2021/12/03 10:28:51;;;;;;;29.02;13.20;;;;;;;;;;5047894;28;20045;-74
2021/12/03 10:34:06;;;;;;;33.13;13.95;;;;;;;;;;5047364;28;20048;-75
2021/12/03 10:47:25;;;;;;;34.00;12.45;;;;;;;;;;5047451;28;20486;-74
2021/12/03 11:04:36;;;;;;;29.50;8.85;;;;;;;;;;5013755;28;20552;-74
2021/12/03 11:12:58;;;;;;;;;;;;;;;;;;;;;
2021/12/03 11:29:18;;;;;;;14.85;6.18;;;;;;;;;;5046565;28;20052;-73
2021/12/03 11:33:43;;;;;;;21.02;6.68;;;;;;;;;;5046552;28;20060;-74
2021/12/03 11:40:32;;;;;;;17.10;6.47;;;;;;;;;;5046945;28;20057;-73
2021/12/03 12:00:26;;;;;;;12.75;4.90;;;;;;;;;;5046396;28;20052;-72
2021/12/03 12:07:31;;;;;;;10.70;4.65;;;;;;;;;;5047345;28;20440;-72
2021/12/03 12:58:33;;;;;;;5.95;3.90;;;;;;;;;;5032889;28;20053;-72
2021/12/03 13:30:07;;;;;;;9.38;4.88;;;;;;;;;;5035647;28;20079;-75
2021/12/03 13:59:47;;;;;;;13.68;5.90;;;;;;;;;;5035622;28;20037;-76
2021/12/03 14:17:46;;;;;;;12.82;6.22;;;;;;;;;;5035241;28;20036;-74
2021/12/03 14:31:23;;;;;;;17.17;6.97;;;;;;;;;;5034354;28;20048;-76
2021/12/03 14:43:03;;;;;;;12.98;5.53;;;;;;;;;;5034293;28;20049;-75
2021/12/03 14:45:48;;;;;;;13.75;5.53;;;;;;;;;;5034700;28;20485;-76
2021/12/03 14:48:32;;;;;;;10.93;5.50;;;;;;;;;;5034767;28;20045;-74
2021/12/03 14:56:01;;;;;;;13.65;5.82;;;;;;;;;;5034136;28;20124;-74
2021/12/03 14:58:49;;;;;;;10.20;4.95;;;;;;;;;;5018068;28;20550;-73
2021/12/03 15:01:21;;;;;;;10.05;5.40;;;;;;;;;;5033611;28;20132;-75
2021/12/03 15:04:02;;;;;;;18.23;6.25;;;;;;;;;;5017461;28;20041;-74
2021/12/03 15:06:53;;;;;;;9.77;4.65;;;;;;;;;;5017409;28;20049;-76
2021/12/03 15:09:26;;;;;;;13.20;6.10;;;;;;;;;;5017871;28;20049;-76
2021/12/03 15:22:45;;;;;;;9.90;5.97;;;;;;;;;;5033881;28;20041;-76
2021/12/03 15:25:23;;;;;;;11.13;6.25;;;;;;;;;;5033947;28;20044;-75
2021/12/03 15:30:41;;;;;;;12.15;6.00;;;;;;;;;;5033739;28;20076;-75
2021/12/03 15:35:55;;;;;;;12.55;5.57;;;;;;;;;;5033526;28;20382;-76
2021/12/03 16:10:22;;;;;;;13.82;7.00;;;;;;;;;;5033501;28;20136;-74
2021/12/03 16:12:58;;;;;;;11.32;6.47;;;;;;;;;;5033045;28;20052;-76
2021/12/03 16:21:21;;;;;;;12.80;6.63;;;;;;;;;;5033078;28;20045;-74
2021/12/03 16:23:57;;;;;;;13.15;7.72;;;;;;;;;;5033071;28;20056;-78
2021/12/03 16:43:34;;;;;;;15.68;7.13;;;;;;;;;;5033097;28;20401;-74
2021/12/03 16:50:53;;;;;;;15.48;7.25;;;;;;;;;;5033129;28;20052;-76
2021/12/03 16:53:24;;;;;;;16.45;9.07;;;;;;;;;;5020044;28;20037;-77
2021/12/03 16:56:12;;;;;;;15.45;8.18;;;;;;;;;;5036384;28;20037;-76
2021/12/03 16:58:39;;;;;;;15.70;9.18;;;;;;;;;;5036542;28;20037;-75
2021/12/03 17:01:17;;;;;;;14.05;8.85;;;;;;;;;;5036832;28;20033;-75
2021/12/03 17:03:59;;;;;;;14.88;7.28;;;;;;;;;;5036485;28;20044;-76
2021/12/03 17:14:58;;;;;;;16.02;9.57;;;;;;;;;;5036156;28;20045;-75
2021/12/03 17:24:55;;;;;;;18.05;9.55;;;;;;;;;;5035790;28;20503;-76
2021/12/03 17:30:27;;;;;;;19.38;9.75;;;;;;;;;;5035751;28;20041;-74
2021/12/03 17:49:31;;;;;;;20.92;10.10;;;;;;;;;;5035297;28;20040;-75
2021/12/03 17:57:28;;;;;;;19.85;10.60;;;;;;;;;;5035659;28;20732;-75
2021/12/03 17:59:55;;;;;;;19.15;10.93;;;;;;;;;;5035503;28;20600;-76
2021/12/03 18:02:36;;;;;;;18.67;10.98;;;;;;;;;;5018775;28;20044;-76
2021/12/03 18:05:28;;;;;;;;;;;;;;;;;;5019032;28;20029;-76
2021/12/03 18:13:45;;;;;;;23.63;11.98;;;;;;;;;;5035115;28;20084;-77
2021/12/03 18:19:04;;;;;;;20.42;10.20;;;;;;;;;;5034935;28;20048;-77
2021/12/03 18:49:13;;;;;;;25.27;11.70;;;;;;;;;;5034160;28;20052;-78
2021/12/03 18:54:25;;;;;;;26.48;13.40;;;;;;;;;;5033978;28;20053;-75
2021/12/03 18:56:55;;;;;;;24.70;12.10;;;;;;;;;;5017978;28;20100;-75
2021/12/03 18:59:25;;;;;;;23.08;11.80;;;;;;;;;;5034481;28;20049;-75
2021/12/03 19:01:52;;;;;;;27.92;12.63;;;;;;;;;;5034322;28;20393;-74
2021/12/03 19:04:37;;;;;;;25.73;12.85;;;;;;;;;;5034114;28;20067;-76
2021/12/03 19:07:18;;;;;;;25.67;12.25;;;;;;;;;;5034012;28;20449;-75
2021/12/03 19:09:48;;;;;;;26.52;12.35;;;;;;;;;;5034259;28;20048;-76
2021/12/03 19:12:17;;;;;;;25.67;11.90;;;;;;;;;;5017743;28;20048;-77
2021/12/03 19:14:49;;;;;;;25.50;12.15;;;;;;;;;;5017290;28;20115;-76
2021/12/03 19:17:15;;;;;;;25.40;12.10;;;;;;;;;;5034172;28;20051;-74
2021/12/03 19:19:44;;;;;;;27.67;12.18;;;;;;;;;;5030221;28;20049;-77
2021/12/03 19:22:10;;;;;;;27.27;12.68;;;;;;;;;;5030385;28;20045;-74
2021/12/03 19:24:36;;;;;;;27.92;13.18;;;;;;;;;;5014055;28;20405;-75
2021/12/03 19:27:02;;;;;;;30.13;13.60;;;;;;;;;;5014024;28;20040;-75
2021/12/03 19:29:31;;;;;;;28.50;13.63;;;;;;;;;;5013937;28;20127;-77
2021/12/03 19:31:57;;;;;;;30.27;12.80;;;;;;;;;;5013828;28;20383;-74
2021/12/03 19:34:23;;;;;;;27.48;13.38;;;;;;;;;;5030074;28;20045;-75
2021/12/03 19:36:50;;;;;;;31.83;14.15;;;;;;;;;;5030114;28;20053;-73
2021/12/03 19:39:17;;;;;;;32.83;14.70;;;;;;;;;;5030310;28;20041;-77
2021/12/03 19:41:51;;;;;;;33.08;14.23;;;;;;;;;;5030143;28;20552;-76
2021/12/03 19:44:20;;;;;;;28.98;13.48;;;;;;;;;;5013823;28;20114;-77
2021/12/03 19:46:48;;;;;;;30.98;14.40;;;;;;;;;;5030450;28;20049;-75
2021/12/03 19:49:21;;;;;;;30.55;14.45;;;;;;;;;;5030136;28;20049;-76
2021/12/03 19:51:53;;;;;;;26.88;12.32;;;;;;;;;;5030178;28;20119;-75
2021/12/03 19:54:20;;;;;;;29.13;14.18;;;;;;;;;;5030168;28;20049;-76
2021/12/03 19:56:46;;;;;;;28.10;12.98;;;;;;;;;;5013839;28;20044;-74
2021/12/03 19:59:13;;;;;;;32.97;14.68;;;;;;;;;;5013360;28;20570;-76
2021/12/03 20:01:39;;;;;;;31.02;13.55;;;;;;;;;;5013562;28;20478;-75
2021/12/03 20:04:07;;;;;;;31.85;13.60;;;;;;;;;;5030220;28;20076;-76
2021/12/03 20:06:33;;;;;;;31.30;13.35;;;;;;;;;;5013763;28;20556;-77
2021/12/03 20:09:02;;;;;;;26.63;11.85;;;;;;;;;;5030037;28;20508;-76
2021/12/03 20:11:40;;;;;;;31.15;13.25;;;;;;;;;;5013848;28;20057;-74
2021/12/03 20:14:09;;;;;;;32.08;13.88;;;;;;;;;;5030012;28;20046;-77
2021/12/03 20:16:39;;;;;;;30.63;13.23;;;;;;;;;;5030154;28;20041;-74
2021/12/03 20:19:11;;;;;;;33.08;14.32;;;;;;;;;;5029758;28;20578;-76
2021/12/03 20:21:44;;;;;;;26.02;13.00;;;;;;;;;;5029944;28;20485;-76
2021/12/03 20:24:26;;;;;;;32.75;13.85;;;;;;;;;;5029865;28;20041;-76
2021/12/03 20:26:58;;;;;;;28.80;14.05;;;;;;;;;;5015159;28;20098;-75
2021/12/03 20:34:56;;;;;;;28.55;12.18;;;;;;;;;;5033514;28;20050;-74
2021/12/03 20:37:25;;;;;;;30.33;13.30;;;;;;;;;;5016973;28;20057;-76
2021/12/03 20:39:54;;;;;;;29.42;14.05;;;;;;;;;;5033605;28;20052;-73
2021/12/03 20:42:34;;;;;;;31.60;14.57;;;;;;;;;;5016772;28;20091;-74
2021/12/03 20:45:26;;;;;;;32.92;13.07;;;;;;;;;;5013596;28;20037;-75
2021/12/03 20:51:04;;;;;;;28.75;12.75;;;;;;;;;;5029110;28;20052;-75
2021/12/03 21:09:42;;;;;;;33.45;12.75;;;;;;;;;;5029047;28;19925;-74
2021/12/03 21:12:45;;;;;;;28.17;12.18;;;;;;;;;;5012089;28;20553;-77
2021/12/03 21:15:55;;;;;;;27.27;13.20;;;;;;;;;;5025852;28;20088;-75
2021/12/03 21:20:52;;;;;;;;;;;;;;;;;;5029367;28;20057;-76
2021/12/03 21:23:20;;;;;;;30.08;12.05;;;;;;;;;;5028926;28;19928;-75
2021/12/03 21:25:51;;;;;;;30.08;12.23;;;;;;;;;;5028750;28;20417;-75
2021/12/03 21:28:31;;;;;;;28.23;11.32;;;;;;;;;;5028726;28;20052;-75
2021/12/03 21:31:23;;;;;;;26.60;11.10;;;;;;;;;;5029189;28;20057;-76
2021/12/03 21:41:29;;;;;;;26.95;11.25;;;;;;;;;;5028976;28;20405;-76
2021/12/03 21:44:00;;;;;;;25.95;11.00;;;;;;;;;;5028557;28;20053;-74
2021/12/03 21:46:27;;;;;;;26.63;11.48;;;;;;;;;;5028815;28;20053;-75
2021/12/03 21:48:54;;;;;;;27.15;11.07;;;;;;;;;;5011650;28;20049;-75
2021/12/03 21:51:21;;;;;;;23.73;10.70;;;;;;;;;;5012328;28;20041;-75
2021/12/03 21:53:47;;;;;;;23.98;10.93;;;;;;;;;;5012041;28;20045;-76
2021/12/03 21:56:14;;;;;;;27.55;11.30;;;;;;;;;;5028804;28;20034;-74
2021/12/03 21:58:40;;;;;;;26.30;11.32;;;;;;;;;;5012301;28;20155;-73